sensor_id;sensor_type;location;lat;lon;timestamp;temperature;humidity
70202;DHT22;57724;52.164;5.408;2022-09-16T15:33:39;18.00;80.20
70202;DHT22;57724;52.164;5.408;2022-09-16T15:36:40;19.70;65.50
70202;DHT22;57724;52.164;5.408;2022-09-16T15:39:39;21.10;79.50
70202;DHT22;57724;52.164;5.408;2022-09-16T15:44:42;19.70;65.50
70202;DHT22;57724;52.164;5.408;2022-09-16T15:47:17;20.20;78.60
70202;DHT22;57724;52.164;5.408;2022-09-16T15:49:46;17.60;78.60
70202;DHT22;57724;52.164;5.408;2022-09-16T15:52:14;18.00;78.90
70202;DHT22;57724;52.164;5.408;2022-09-16T15:54:53;17.20;78.40
70202;DHT22;57724;52.164;5.408;2022-09-16T15:57:31;19.70;73.80
70202;DHT22;57724;52.164;5.408;2022-09-16T16:00:06;18.50;79.30
70202;DHT22;57724;52.164;5.408;2022-09-16T16:02:47;19.60;79.50
70202;DHT22;57724;52.164;5.408;2022-09-16T16:05:20;18.10;78.20
70202;DHT22;57724;52.164;5.408;2022-09-16T16:07:55;20.20;79.20
70202;DHT22;57724;52.164;5.408;2022-09-16T16:10:31;19.10;62.90
70202;DHT22;57724;52.164;5.408;2022-09-16T16:13:00;19.20;78.30
70202;DHT22;57724;52.164;5.408;2022-09-16T16:15:33;19.20;78.20
70202;DHT22;57724;52.164;5.408;2022-09-16T16:18:04;17.80;77.40
70202;DHT22;57724;52.164;5.408;2022-09-16T16:20:32;19.80;78.80
70202;DHT22;57724;52.164;5.408;2022-09-16T16:23:00;18.70;77.40
70202;DHT22;57724;52.164;5.408;2022-09-16T16:25:27;19.10;68.30
70202;DHT22;57724;52.164;5.408;2022-09-16T16:27:54;18.80;73.90
70202;DHT22;57724;52.164;5.408;2022-09-16T16:30:21;17.70;77.80
70202;DHT22;57724;52.164;5.408;2022-09-16T16:32:47;20.10;79.40
70202;DHT22;57724;52.164;5.408;2022-09-16T16:35:14;19.20;78.90
70202;DHT22;57724;52.164;5.408;2022-09-16T16:40:13;19.30;79.20
70202;DHT22;57724;52.164;5.408;2022-09-16T16:42:41;18.20;79.00
70202;DHT22;57724;52.164;5.408;2022-09-16T16:45:12;17.10;79.20
70202;DHT22;57724;52.164;5.408;2022-09-16T16:47:39;16.80;79.70
70202;DHT22;57724;52.164;5.408;2022-09-16T16:50:06;17.60;80.80
70202;DHT22;57724;52.164;5.408;2022-09-16T16:52:33;17.50;81.70
70202;DHT22;57724;52.164;5.408;2022-09-16T16:55:00;18.20;82.90
70202;DHT22;57724;52.164;5.408;2022-09-16T17:02:21;16.90;82.70
70202;DHT22;57724;52.164;5.408;2022-09-16T17:04:48;16.50;82.60
70202;DHT22;57724;52.164;5.408;2022-09-16T17:07:15;16.20;82.50
70202;DHT22;57724;52.164;5.408;2022-09-16T17:09:58;18.50;80.60
70202;DHT22;57724;52.164;5.408;2022-09-16T17:19:53;18.20;76.70
70202;DHT22;57724;52.164;5.408;2022-09-16T17:24:50;16.70;68.90
70202;DHT22;57724;52.164;5.408;2022-09-16T17:27:16;15.60;84.10
70202;DHT22;57724;52.164;5.408;2022-09-16T17:29:46;15.70;84.40
70202;DHT22;57724;52.164;5.408;2022-09-16T17:32:12;17.90;85.90
70202;DHT22;57724;52.164;5.408;2022-09-16T17:34:39;15.40;84.90
70202;DHT22;57724;52.164;5.408;2022-09-16T17:37:06;17.30;86.30
70202;DHT22;57724;52.164;5.408;2022-09-16T17:39:34;15.30;85.60
70202;DHT22;57724;52.164;5.408;2022-09-16T17:42:00;15.80;86.00
70202;DHT22;57724;52.164;5.408;2022-09-16T17:46:55;15.10;86.40
70202;DHT22;57724;52.164;5.408;2022-09-16T17:49:23;15.00;86.50
70202;DHT22;57724;52.164;5.408;2022-09-16T17:51:50;14.90;86.90
70202;DHT22;57724;52.164;5.408;2022-09-16T17:59:14;15.90;74.00
70202;DHT22;57724;52.164;5.408;2022-09-16T18:04:08;16.30;88.70
70202;DHT22;57724;52.164;5.408;2022-09-16T18:06:43;15.70;74.80
70202;DHT22;57724;52.164;5.408;2022-09-16T18:09:11;15.70;74.30
70202;DHT22;57724;52.164;5.408;2022-09-16T18:14:07;15.60;75.10
70202;DHT22;57724;52.164;5.408;2022-09-16T18:19:04;14.30;89.10
70202;DHT22;57724;52.164;5.408;2022-09-16T18:21:31;14.30;89.20
70202;DHT22;57724;52.164;5.408;2022-09-16T18:24:01;15.40;76.20
70202;DHT22;57724;52.164;5.408;2022-09-16T18:26:28;16.70;90.40
70202;DHT22;57724;52.164;5.408;2022-09-16T18:28:56;14.30;89.80
70202;DHT22;57724;52.164;5.408;2022-09-16T18:31:44;15.20;76.10
70202;DHT22;57724;52.164;5.408;2022-09-16T18:34:12;13.40;79.80
70202;DHT22;57724;52.164;5.408;2022-09-16T18:36:39;15.10;90.30
70202;DHT22;57724;52.164;5.408;2022-09-16T18:39:10;15.60;90.40
70202;DHT22;57724;52.164;5.408;2022-09-16T18:41:38;16.40;90.70
70202;DHT22;57724;52.164;5.408;2022-09-16T18:44:10;16.30;90.80
70202;DHT22;57724;52.164;5.408;2022-09-16T18:46:37;16.60;90.90
70202;DHT22;57724;52.164;5.408;2022-09-16T18:49:05;15.90;83.60
70202;DHT22;57724;52.164;5.408;2022-09-16T18:51:37;15.30;77.70
70202;DHT22;57724;52.164;5.408;2022-09-16T18:54:10;14.20;90.50
70202;DHT22;57724;52.164;5.408;2022-09-16T18:56:39;16.80;91.20
70202;DHT22;57724;52.164;5.408;2022-09-16T18:59:13;16.60;91.20
70202;DHT22;57724;52.164;5.408;2022-09-16T19:01:58;16.60;91.30
70202;DHT22;57724;52.164;5.408;2022-09-16T19:04:28;14.30;90.90
70202;DHT22;57724;52.164;5.408;2022-09-16T19:06:55;15.20;80.00
70202;DHT22;57724;52.164;5.408;2022-09-16T19:09:24;16.50;91.50
70202;DHT22;57724;52.164;5.408;2022-09-16T19:11:51;16.40;79.10
70202;DHT22;57724;52.164;5.408;2022-09-16T19:14:19;16.10;91.70
70202;DHT22;57724;52.164;5.408;2022-09-16T19:16:49;14.30;91.40
70202;DHT22;57724;52.164;5.408;2022-09-16T19:19:16;14.40;91.60
70202;DHT22;57724;52.164;5.408;2022-09-16T19:21:43;15.70;83.70
70202;DHT22;57724;52.164;5.408;2022-09-16T19:24:14;15.90;80.80
70202;DHT22;57724;52.164;5.408;2022-09-16T19:26:42;14.50;91.80
70202;DHT22;57724;52.164;5.408;2022-09-16T19:29:11;15.00;80.60
70202;DHT22;57724;52.164;5.408;2022-09-16T19:31:39;14.70;92.00
70202;DHT22;57724;52.164;5.408;2022-09-16T19:36:34;14.90;81.30
70202;DHT22;57724;52.164;5.408;2022-09-16T19:39:03;15.20;81.60
70202;DHT22;57724;52.164;5.408;2022-09-16T19:41:31;13.90;92.10
70202;DHT22;57724;52.164;5.408;2022-09-16T19:44:00;13.90;83.10
70202;DHT22;57724;52.164;5.408;2022-09-16T19:46:28;14.30;84.50
70202;DHT22;57724;52.164;5.408;2022-09-16T19:48:57;16.10;92.80
70202;DHT22;57724;52.164;5.408;2022-09-16T19:51:24;13.90;82.30
70202;DHT22;57724;52.164;5.408;2022-09-16T19:53:52;16.20;93.00
70202;DHT22;57724;52.164;5.408;2022-09-16T19:56:22;14.90;82.40
70202;DHT22;57724;52.164;5.408;2022-09-16T19:58:49;14.10;92.70
70202;DHT22;57724;52.164;5.408;2022-09-16T20:01:23;13.80;83.70
70202;DHT22;57724;52.164;5.408;2022-09-16T20:03:51;15.20;92.90
70202;DHT22;57724;52.164;5.408;2022-09-16T20:06:26;15.70;93.00
70202;DHT22;57724;52.164;5.408;2022-09-16T20:08:56;14.80;82.50
70202;DHT22;57724;52.164;5.408;2022-09-16T20:11:27;14.40;93.00
70202;DHT22;57724;52.164;5.408;2022-09-16T20:13:59;13.70;87.10
70202;DHT22;57724;52.164;5.408;2022-09-16T20:16:29;14.00;90.70
70202;DHT22;57724;52.164;5.408;2022-09-16T20:18:56;14.80;93.30
70202;DHT22;57724;52.164;5.408;2022-09-16T20:21:24;15.80;86.40
70202;DHT22;57724;52.164;5.408;2022-09-16T20:23:53;16.10;93.60
70202;DHT22;57724;52.164;5.408;2022-09-16T20:26:20;15.70;93.60
70202;DHT22;57724;52.164;5.408;2022-09-16T20:28:49;15.20;93.40
70202;DHT22;57724;52.164;5.408;2022-09-16T20:31:21;15.30;88.80
70202;DHT22;57724;52.164;5.408;2022-09-16T20:33:49;14.70;93.20
70202;DHT22;57724;52.164;5.408;2022-09-16T20:36:20;14.50;93.10
70202;DHT22;57724;52.164;5.408;2022-09-16T20:41:20;15.90;93.40
70202;DHT22;57724;52.164;5.408;2022-09-16T20:43:47;15.10;93.20
70202;DHT22;57724;52.164;5.408;2022-09-16T20:46:24;14.30;92.90
70202;DHT22;57724;52.164;5.408;2022-09-16T20:48:54;15.50;93.40
70202;DHT22;57724;52.164;5.408;2022-09-16T20:51:23;14.70;83.50
70202;DHT22;57724;52.164;5.408;2022-09-16T20:53:55;13.40;93.40
70202;DHT22;57724;52.164;5.408;2022-09-16T20:56:23;13.90;93.60
70202;DHT22;57724;52.164;5.408;2022-09-16T20:58:50;13.90;91.40
70202;DHT22;57724;52.164;5.408;2022-09-16T21:01:22;13.60;93.70
70202;DHT22;57724;52.164;5.408;2022-09-16T21:04:01;13.60;94.00
70202;DHT22;57724;52.164;5.408;2022-09-16T21:06:30;13.50;93.90
70202;DHT22;57724;52.164;5.408;2022-09-16T21:08:59;13.60;93.90
70202;DHT22;57724;52.164;5.408;2022-09-16T21:11:27;14.80;85.50
70202;DHT22;57724;52.164;5.408;2022-09-16T21:13:59;13.60;94.10
70202;DHT22;57724;52.164;5.408;2022-09-16T21:16:27;15.10;94.50
70202;DHT22;57724;52.164;5.408;2022-09-16T21:18:56;13.20;84.80
70202;DHT22;57724;52.164;5.408;2022-09-16T21:21:24;14.70;86.20
70202;DHT22;57724;52.164;5.408;2022-09-16T21:23:52;14.70;86.30
70202;DHT22;57724;52.164;5.408;2022-09-16T21:26:22;14.80;86.30
70202;DHT22;57724;52.164;5.408;2022-09-16T21:28:57;14.80;84.50
70202;DHT22;57724;52.164;5.408;2022-09-16T21:31:26;14.20;94.60
70202;DHT22;57724;52.164;5.408;2022-09-16T21:33:53;14.80;87.70
70202;DHT22;57724;52.164;5.408;2022-09-16T21:36:23;13.90;90.70
70202;DHT22;57724;52.164;5.408;2022-09-16T21:38:50;16.10;95.00
70202;DHT22;57724;52.164;5.408;2022-09-16T21:41:18;13.80;90.40
70202;DHT22;57724;52.164;5.408;2022-09-16T21:43:48;13.80;94.60
70202;DHT22;57724;52.164;5.408;2022-09-16T21:46:21;14.60;87.00
70202;DHT22;57724;52.164;5.408;2022-09-16T21:48:49;16.00;90.00
70202;DHT22;57724;52.164;5.408;2022-09-16T21:51:17;15.20;95.10
70202;DHT22;57724;52.164;5.408;2022-09-16T21:53:45;14.80;90.60
70202;DHT22;57724;52.164;5.408;2022-09-16T21:56:18;14.60;87.30
70202;DHT22;57724;52.164;5.408;2022-09-16T21:58:46;15.10;94.10
70202;DHT22;57724;52.164;5.408;2022-09-16T22:01:16;14.70;93.60
70202;DHT22;57724;52.164;5.408;2022-09-16T22:03:46;13.90;95.00
70202;DHT22;57724;52.164;5.408;2022-09-16T22:06:15;14.70;93.20
70202;DHT22;57724;52.164;5.408;2022-09-16T22:08:44;13.50;95.00
70202;DHT22;57724;52.164;5.408;2022-09-16T22:11:16;13.40;95.00
70202;DHT22;57724;52.164;5.408;2022-09-16T22:13:43;15.60;95.70
70202;DHT22;57724;52.164;5.408;2022-09-16T22:16:16;13.90;95.20
70202;DHT22;57724;52.164;5.408;2022-09-16T22:18:44;13.30;91.50
70202;DHT22;57724;52.164;5.408;2022-09-16T22:21:13;13.30;95.20
70202;DHT22;57724;52.164;5.408;2022-09-16T22:23:40;13.50;95.20
70202;DHT22;57724;52.164;5.408;2022-09-16T22:26:11;13.30;95.20
70202;DHT22;57724;52.164;5.408;2022-09-16T22:28:38;14.40;88.40
70202;DHT22;57724;52.164;5.408;2022-09-16T22:31:09;13.30;95.30
70202;DHT22;57724;52.164;5.408;2022-09-16T22:33:38;13.30;95.30
70202;DHT22;57724;52.164;5.408;2022-09-16T22:36:11;14.30;88.70
70202;DHT22;57724;52.164;5.408;2022-09-16T22:41:07;13.20;89.00
70202;DHT22;57724;52.164;5.408;2022-09-16T22:43:35;14.20;88.70
70202;DHT22;57724;52.164;5.408;2022-09-16T22:46:13;13.30;95.70
70202;DHT22;57724;52.164;5.408;2022-09-16T22:51:10;14.90;96.30
70202;DHT22;57724;52.164;5.408;2022-09-16T22:53:38;14.20;96.10
70202;DHT22;57724;52.164;5.408;2022-09-16T22:56:07;14.10;89.60
70202;DHT22;57724;52.164;5.408;2022-09-16T22:58:35;15.50;96.50
70202;DHT22;57724;52.164;5.408;2022-09-16T23:03:33;14.90;96.20
70202;DHT22;57724;52.164;5.408;2022-09-16T23:06:03;14.80;96.30
70202;DHT22;57724;52.164;5.408;2022-09-16T23:08:33;14.10;96.10
70202;DHT22;57724;52.164;5.408;2022-09-16T23:11:01;14.90;96.00
70202;DHT22;57724;52.164;5.408;2022-09-16T23:13:31;14.10;95.90
70202;DHT22;57724;52.164;5.408;2022-09-16T23:16:04;14.60;96.10
70202;DHT22;57724;52.164;5.408;2022-09-16T23:18:32;13.10;95.70
70202;DHT22;57724;52.164;5.408;2022-09-16T23:21:02;13.10;95.70
70202;DHT22;57724;52.164;5.408;2022-09-16T23:23:30;14.30;96.00
70202;DHT22;57724;52.164;5.408;2022-09-16T23:26:01;14.00;89.40
70202;DHT22;57724;52.164;5.408;2022-09-16T23:28:28;13.50;95.90
70202;DHT22;57724;52.164;5.408;2022-09-16T23:31:07;13.90;87.40
70202;DHT22;57724;52.164;5.408;2022-09-16T23:33:34;13.10;95.70
70202;DHT22;57724;52.164;5.408;2022-09-16T23:36:02;12.90;91.00
70202;DHT22;57724;52.164;5.408;2022-09-16T23:41:05;13.90;88.80
70202;DHT22;57724;52.164;5.408;2022-09-16T23:46:00;12.80;95.40
70202;DHT22;57724;52.164;5.408;2022-09-16T23:48:28;14.00;88.60
70202;DHT22;57724;52.164;5.408;2022-09-16T23:58:17;12.90;95.60
